createdAt,value
2018-01-12T00:01:52.330Z,35.43
2018-01-12T00:04:20.775Z,31.07
2018-01-12T00:06:57.870Z,36.30
2018-01-12T00:09:26.138Z,39.80
2018-01-12T00:11:54.382Z,31.63
2018-01-12T00:14:22.635Z,36.00
2018-01-12T00:16:50.897Z,34.63
2018-01-12T00:19:19.146Z,32.57
2018-01-12T00:21:47.385Z,36.33
2018-01-12T00:24:15.761Z,36.60
2018-01-12T00:26:44.022Z,38.13
2018-01-12T00:29:12.265Z,35.80
2018-01-12T00:31:41.462Z,39.17
2018-01-12T00:34:10.474Z,31.13
2018-01-12T00:36:38.721Z,35.73
2018-01-12T00:39:06.990Z,26.47
2018-01-12T00:41:35.238Z,29.93
2018-01-12T00:44:03.492Z,39.30
2018-01-12T00:46:32.281Z,38.43
2018-01-12T00:49:00.528Z,37.73
2018-01-12T00:51:28.781Z,39.93
2018-01-12T00:53:57.525Z,41.77
2018-01-12T00:56:25.770Z,38.83
2018-01-12T00:58:54.013Z,41.30
2018-01-12T01:01:22.285Z,37.20
2018-01-12T01:03:50.526Z,37.43
2018-01-12T01:06:18.778Z,38.77
2018-01-12T01:08:47.865Z,39.83
2018-01-12T01:11:16.873Z,37.07
2018-01-12T01:13:45.117Z,40.53
2018-01-12T01:16:13.390Z,36.30
2018-01-12T01:18:41.645Z,35.40
2018-01-12T01:21:09.899Z,35.20
2018-01-12T01:23:38.170Z,40.83
2018-01-12T01:26:06.417Z,34.57
2018-01-12T01:28:35.425Z,36.30
2018-01-12T01:31:04.765Z,42.17
2018-01-12T01:33:33.026Z,34.97
2018-01-12T01:36:01.275Z,36.43
2018-01-12T01:38:29.545Z,39.50
2018-01-12T01:40:58.549Z,32.33
2018-01-12T01:43:27.566Z,39.73
2018-01-12T01:45:56.606Z,35.23
2018-01-12T01:48:36.545Z,33.17
2018-01-12T01:51:09.006Z,38.80
2018-01-12T01:53:37.270Z,39.17
2018-01-12T01:56:06.026Z,36.17
2018-01-12T01:58:35.062Z,34.67
2018-01-12T02:01:03.313Z,37.87
2018-01-12T02:03:31.561Z,38.07
2018-01-12T02:05:59.829Z,38.17
2018-01-12T02:08:28.084Z,43.37
2018-01-12T02:10:56.325Z,36.27
2018-01-12T02:13:25.026Z,39.23
2018-01-12T02:15:53.273Z,37.20
2018-01-12T02:18:21.527Z,39.40
2018-01-12T02:20:49.789Z,35.33
2018-01-12T02:23:18.033Z,43.13
2018-01-12T02:25:46.294Z,38.17
2018-01-12T02:28:14.558Z,45.10
2018-01-12T02:30:42.806Z,41.50
2018-01-12T02:33:11.054Z,45.37
2018-01-12T02:35:39.950Z,40.73
2018-01-12T02:38:08.182Z,37.97
2018-01-12T02:40:36.421Z,37.33
2018-01-12T02:43:04.686Z,35.27
2018-01-12T02:45:33.701Z,41.83
2018-01-12T02:48:01.954Z,31.23
2018-01-12T02:50:30.230Z,30.90
2018-01-12T02:52:58.477Z,36.80
2018-01-12T02:55:26.729Z,42.63
2018-01-12T02:57:55.551Z,37.33
2018-01-12T03:00:23.807Z,37.50
2018-01-12T03:02:52.041Z,33.97
2018-01-12T03:05:21.078Z,35.67
2018-01-12T03:07:49.325Z,38.03
2018-01-12T03:10:18.338Z,33.57
2018-01-12T03:12:46.610Z,37.87
2018-01-12T03:15:14.853Z,34.40
2018-01-12T03:17:43.105Z,35.57
2018-01-12T03:20:11.579Z,33.53
2018-01-12T03:22:39.826Z,30.40
2018-01-12T03:25:08.079Z,33.23
2018-01-12T03:27:36.345Z,33.70
2018-01-12T03:30:04.599Z,37.20
2018-01-12T03:32:32.849Z,31.90
2018-01-12T03:35:01.114Z,33.10
2018-01-12T03:37:29.361Z,35.67
2018-01-12T03:39:58.369Z,33.10
2018-01-12T03:42:26.990Z,40.63
2018-01-12T03:44:55.238Z,35.93
2018-01-12T03:47:23.493Z,37.27
2018-01-12T03:49:51.779Z,36.67
2018-01-12T03:52:20.794Z,40.23
2018-01-12T03:54:49.037Z,44.33
2018-01-12T03:57:17.306Z,44.43
2018-01-12T03:59:46.521Z,43.57
2018-01-12T04:02:15.535Z,41.90
2018-01-12T04:04:43.990Z,51.67
2018-01-12T04:07:12.247Z,41.20
2018-01-12T04:09:40.491Z,45.60
2018-01-12T04:12:08.766Z,37.90
2018-01-12T04:14:37.009Z,37.27
2018-01-12T04:17:05.262Z,38.93
2018-01-12T04:19:33.526Z,33.40
2018-01-12T04:22:01.778Z,37.90
2018-01-12T04:24:30.030Z,43.73
2018-01-12T04:26:58.426Z,39.00
2018-01-12T04:29:26.674Z,45.00
2018-01-12T04:31:54.914Z,52.50
2018-01-12T04:34:23.953Z,45.40
2018-01-12T04:36:52.206Z,51.80
2018-01-12T04:39:21.230Z,59.50
2018-01-12T04:41:49.506Z,56.03
2018-01-12T04:44:17.749Z,51.70
2018-01-12T04:46:46.001Z,46.70
2018-01-12T04:49:14.837Z,53.80
2018-01-12T04:51:43.090Z,44.30
2018-01-12T04:54:12.098Z,47.40
2018-01-12T04:56:41.140Z,51.70
2018-01-12T04:59:09.387Z,48.13
2018-01-12T05:01:37.845Z,51.00
2018-01-12T05:04:06.882Z,48.40
2018-01-12T05:06:35.134Z,51.83
2018-01-12T05:09:03.494Z,58.23
2018-01-12T05:11:32.040Z,50.87
2018-01-12T05:14:00.278Z,53.37
2018-01-12T05:16:28.526Z,55.23
2018-01-12T05:18:56.802Z,45.97
2018-01-12T05:21:25.830Z,52.03
2018-01-12T05:23:54.206Z,56.47
2018-01-12T05:26:22.473Z,55.57
2018-01-12T05:28:50.727Z,48.47
2018-01-12T05:31:19.156Z,54.60
2018-01-12T05:33:47.755Z,54.87
2018-01-12T05:36:16.073Z,59.23
2018-01-12T05:38:44.616Z,61.10
2018-01-12T05:41:12.866Z,67.10
2018-01-12T05:43:41.114Z,55.33
2018-01-12T05:46:09.610Z,54.97
2018-01-12T05:48:37.873Z,51.70
2018-01-12T05:51:06.122Z,52.60
2018-01-12T05:53:34.374Z,48.93
2018-01-12T05:56:02.878Z,45.93
2018-01-12T05:58:31.121Z,42.27
2018-01-12T06:01:11.205Z,49.53
2018-01-12T06:06:45.826Z,40.77
2018-01-12T06:09:14.074Z,33.43
2018-01-12T06:11:42.326Z,38.40
2018-01-12T06:14:10.900Z,43.43
2018-01-12T06:16:39.176Z,44.23
2018-01-12T06:19:07.414Z,41.40
2018-01-12T06:21:35.698Z,47.20
2018-01-12T06:24:03.984Z,48.33
2018-01-12T06:26:32.214Z,52.03
2018-01-12T06:29:00.741Z,53.63
2018-01-12T06:31:28.975Z,44.03
2018-01-12T06:33:57.237Z,46.47
2018-01-12T06:36:28.349Z,49.13
2018-01-12T06:38:56.578Z,42.40
2018-01-12T06:41:24.830Z,49.23
2018-01-12T06:43:53.097Z,44.27
2018-01-12T06:46:22.114Z,45.97
2018-01-12T06:48:50.365Z,54.93
2018-01-12T06:51:19.401Z,43.90
2018-01-12T06:53:47.650Z,48.90
2018-01-12T06:56:15.894Z,60.17
2018-01-12T06:58:44.230Z,64.67
2018-01-12T07:01:12.473Z,60.00
2018-01-12T07:03:40.959Z,57.07
2018-01-12T07:06:09.994Z,60.50
2018-01-12T07:08:38.234Z,63.77
2018-01-12T07:11:06.482Z,63.27
2018-01-12T07:13:34.750Z,56.73
2018-01-12T07:16:03.017Z,57.80
2018-01-12T07:18:31.250Z,53.23
2018-01-12T07:21:11.633Z,55.67
2018-01-12T07:23:44.446Z,51.27
2018-01-12T07:26:12.713Z,57.53
2018-01-12T07:28:40.952Z,59.10
2018-01-12T07:31:09.202Z,52.10
2018-01-12T07:33:37.474Z,48.23
2018-01-12T07:36:06.485Z,51.93
2018-01-12T07:38:35.493Z,34.30
2018-01-12T07:41:04.198Z,41.03
2018-01-12T07:43:32.446Z,39.50
2018-01-12T07:46:00.772Z,41.60
2018-01-12T07:48:29.017Z,39.90
2018-01-12T07:50:57.262Z,40.93
2018-01-12T07:53:25.510Z,35.60
2018-01-12T07:55:53.777Z,40.50
2018-01-12T07:58:22.021Z,42.10
2018-01-12T08:00:57.302Z,41.27
2018-01-12T08:03:25.554Z,45.87
2018-01-12T08:05:54.141Z,47.50
2018-01-12T08:08:22.409Z,48.40
2018-01-12T08:10:50.662Z,49.37
2018-01-12T08:13:18.909Z,49.63
2018-01-12T08:15:47.177Z,50.13
2018-01-12T08:18:15.421Z,46.73
2018-01-12T08:20:43.669Z,47.17
2018-01-12T08:23:12.216Z,40.07
2018-01-12T08:25:40.463Z,40.63
2018-01-12T08:28:08.717Z,54.40
2018-01-12T08:30:36.989Z,45.97
2018-01-12T08:33:05.242Z,44.00
2018-01-12T08:35:33.685Z,43.67
2018-01-12T08:38:01.955Z,43.60
2018-01-12T08:40:30.209Z,45.47
2018-01-12T08:42:58.517Z,45.53
2018-01-12T08:45:27.950Z,44.57
2018-01-12T08:47:56.201Z,40.10
2018-01-12T08:50:24.445Z,51.20
2018-01-12T08:52:53.905Z,48.20
2018-01-12T08:55:22.921Z,48.43
2018-01-12T08:57:51.253Z,47.10
2018-01-12T09:00:19.530Z,52.20
2018-01-12T09:02:48.934Z,43.83
2018-01-12T09:05:17.186Z,47.43
2018-01-12T09:07:45.509Z,46.00
2018-01-12T09:10:13.761Z,45.83
2018-01-12T09:12:42.342Z,42.13
2018-01-12T09:15:22.457Z,47.60
2018-01-12T09:17:50.894Z,38.37
2018-01-12T09:20:19.261Z,47.73
2018-01-12T09:22:48.482Z,47.20
2018-01-12T09:25:25.570Z,49.00
2018-01-12T09:27:54.605Z,46.20
2018-01-12T09:30:23.124Z,41.83
2018-01-12T09:32:51.349Z,52.23
2018-01-12T09:35:19.622Z,46.00
2018-01-12T09:37:59.657Z,51.73
2018-01-12T09:40:46.685Z,48.40
2018-01-12T09:43:16.145Z,45.53
2018-01-12T09:45:44.393Z,46.03
2018-01-12T09:48:22.553Z,46.47
2018-01-12T09:50:50.798Z,45.17
2018-01-12T09:53:19.037Z,44.30
2018-01-12T09:55:47.405Z,50.87
2018-01-12T09:58:15.669Z,43.07
2018-01-12T10:01:00.338Z,45.63
2018-01-12T10:03:29.382Z,52.10
2018-01-12T10:05:57.661Z,43.83
2018-01-12T10:08:26.700Z,44.30
2018-01-12T10:10:55.704Z,54.07
2018-01-12T10:13:23.957Z,44.37
2018-01-12T10:15:52.684Z,46.33
2018-01-12T10:18:32.805Z,48.33
2018-01-12T10:24:01.661Z,49.80
2018-01-12T10:26:29.925Z,45.87
2018-01-12T10:29:06.844Z,43.33
2018-01-12T10:31:47.108Z,44.20
2018-01-12T10:34:23.841Z,42.10
2018-01-12T10:36:55.037Z,45.00
2018-01-12T10:39:23.284Z,47.03
2018-01-12T10:42:04.337Z,51.27
2018-01-12T10:44:32.644Z,47.20
2018-01-12T10:47:16.689Z,49.03
2018-01-12T10:49:57.437Z,52.63
2018-01-12T10:52:37.481Z,49.40
2018-01-12T10:55:05.738Z,51.70
2018-01-12T10:57:33.990Z,56.63
2018-01-12T11:00:04.258Z,57.53
2018-01-12T11:02:32.585Z,47.23
2018-01-12T11:05:01.877Z,49.00
2018-01-12T11:07:30.347Z,49.40
2018-01-12T11:09:58.585Z,46.37
2018-01-12T11:12:26.835Z,51.03
2018-01-12T11:14:56.340Z,51.70
2018-01-12T11:17:25.349Z,52.60
2018-01-12T11:19:56.034Z,50.80
2018-01-12T11:22:25.505Z,52.03
2018-01-12T11:24:53.754Z,47.80
2018-01-12T11:27:22.157Z,60.20
2018-01-12T11:29:51.902Z,58.30
2018-01-12T11:32:21.889Z,54.40
2018-01-12T11:34:53.646Z,50.40
2018-01-12T11:37:22.601Z,52.93
2018-01-12T11:39:51.007Z,45.57
2018-01-12T11:42:20.505Z,48.77
2018-01-12T11:44:49.522Z,46.87
2018-01-12T11:47:17.769Z,47.07
2018-01-12T11:49:46.724Z,53.53
2018-01-12T11:52:14.949Z,55.93
2018-01-12T11:54:43.193Z,57.10
2018-01-12T11:57:11.472Z,56.10
2018-01-12T11:59:39.725Z,53.10
2018-01-12T12:02:07.969Z,52.00
2018-01-12T12:04:36.242Z,62.57
2018-01-12T12:07:04.493Z,48.17
2018-01-12T12:09:32.977Z,54.23
2018-01-12T12:12:02.317Z,55.63
2018-01-12T12:14:30.562Z,57.57
2018-01-12T12:16:59.001Z,56.93
2018-01-12T12:19:27.271Z,63.17
2018-01-12T12:21:55.532Z,58.90
2018-01-12T12:24:23.778Z,58.57
2018-01-12T12:26:52.113Z,54.50
2018-01-12T12:29:20.485Z,65.33
2018-01-12T12:31:48.709Z,53.57
2018-01-12T12:34:18.051Z,58.83
2018-01-12T12:36:46.301Z,61.13
2018-01-12T12:39:14.554Z,60.93
2018-01-12T12:41:42.824Z,56.40
2018-01-12T12:44:11.870Z,51.80
2018-01-12T12:46:40.121Z,54.40
2018-01-12T12:49:08.925Z,56.07
2018-01-12T12:51:37.241Z,55.33
2018-01-12T12:54:05.522Z,64.20
2018-01-12T12:56:34.066Z,55.30
2018-01-12T12:59:02.313Z,55.90
2018-01-12T13:01:30.559Z,55.60
2018-01-12T13:03:58.824Z,50.70
2018-01-12T13:06:27.095Z,44.17
2018-01-12T13:08:55.325Z,51.23
2018-01-12T13:11:24.020Z,49.70
2018-01-12T13:13:52.274Z,49.10
2018-01-12T13:16:20.517Z,45.23
2018-01-12T13:18:49.912Z,49.30
2018-01-12T13:21:18.154Z,49.13
2018-01-12T13:23:46.401Z,45.83
2018-01-12T13:26:14.669Z,45.27
2018-01-12T13:28:42.922Z,44.17
2018-01-12T13:31:12.226Z,44.40
2018-01-12T13:33:40.510Z,48.00
2018-01-12T13:36:08.760Z,44.47
2018-01-12T13:38:37.184Z,43.13
2018-01-12T13:41:06.738Z,36.60
2018-01-12T13:43:34.992Z,38.20
2018-01-12T13:46:03.229Z,40.03
2018-01-12T13:48:32.265Z,42.07
2018-01-12T13:51:00.525Z,38.77
2018-01-12T13:53:29.545Z,39.23
2018-01-12T13:55:57.828Z,40.73
2018-01-12T13:58:26.085Z,37.43
2018-01-12T14:00:54.351Z,44.43
2018-01-12T14:03:23.677Z,40.57
2018-01-12T14:05:51.922Z,42.87
2018-01-12T14:08:20.168Z,42.30
2018-01-12T14:10:48.447Z,41.10
2018-01-12T14:13:16.847Z,53.27
2018-01-12T14:15:45.211Z,37.30
2018-01-12T14:18:13.469Z,47.23
2018-01-12T14:20:41.713Z,40.87
2018-01-12T14:23:09.972Z,39.20
2018-01-12T14:25:38.789Z,47.57
2018-01-12T14:28:07.034Z,40.00
2018-01-12T14:30:35.286Z,40.07
2018-01-12T14:33:03.570Z,38.10
2018-01-12T14:35:32.582Z,40.40
2018-01-12T14:38:01.593Z,42.93
2018-01-12T14:40:29.870Z,41.30
2018-01-12T14:42:58.182Z,34.10
2018-01-12T14:45:26.414Z,43.87
2018-01-12T14:47:55.244Z,38.53
2018-01-12T14:50:23.474Z,41.10
2018-01-12T14:52:51.716Z,44.00
2018-01-12T14:55:19.997Z,41.40
2018-01-12T14:57:48.230Z,38.20
2018-01-12T15:00:16.473Z,36.43
2018-01-12T15:02:44.741Z,37.00
2018-01-12T15:05:14.010Z,36.97
2018-01-12T15:07:42.262Z,36.03
2018-01-12T15:10:10.674Z,36.20
2018-01-12T15:12:38.927Z,37.20
2018-01-12T15:15:07.174Z,35.00
2018-01-12T15:17:35.450Z,36.80
2018-01-12T15:20:03.698Z,39.50
2018-01-12T15:22:32.718Z,40.73
2018-01-12T15:25:01.219Z,35.90
2018-01-12T15:27:29.472Z,38.13
2018-01-12T15:29:57.797Z,39.60
2018-01-12T15:32:26.258Z,38.40
2018-01-12T15:34:54.504Z,38.93
2018-01-12T15:37:22.770Z,37.73
2018-01-12T15:39:51.062Z,36.23
2018-01-12T15:42:19.310Z,35.90
2018-01-12T15:44:47.561Z,35.03
2018-01-12T15:47:15.913Z,35.00
2018-01-12T15:49:44.141Z,36.37
2018-01-12T15:52:12.389Z,37.87
2018-01-12T15:54:40.888Z,38.50
2018-01-12T15:57:09.117Z,41.40
2018-01-12T15:59:37.433Z,40.73
2018-01-12T16:02:05.710Z,35.40
2018-01-12T16:04:33.961Z,42.60
2018-01-12T16:07:02.217Z,44.53
2018-01-12T16:09:30.485Z,43.70
2018-01-12T16:11:58.729Z,42.33
2018-01-12T16:14:27.173Z,40.13
2018-01-12T16:16:55.689Z,43.80
2018-01-12T16:19:23.909Z,40.40
2018-01-12T16:21:52.153Z,37.90
2018-01-12T16:24:20.421Z,43.33
2018-01-12T16:26:48.717Z,45.33
2018-01-12T16:29:17.729Z,43.40
2018-01-12T16:31:46.006Z,37.70
2018-01-12T16:34:14.257Z,44.43
2018-01-12T16:36:42.506Z,43.77
2018-01-12T16:39:17.261Z,45.37
2018-01-12T16:41:39.222Z,37.67
2018-01-12T16:44:07.465Z,42.00
2018-01-12T16:46:35.753Z,45.27
2018-01-12T16:49:04.765Z,39.83
2018-01-12T16:51:33.125Z,41.17
2018-01-12T16:54:02.161Z,50.97
2018-01-12T16:56:30.413Z,39.83
2018-01-12T16:58:58.650Z,33.33
2018-01-12T17:01:27.865Z,36.93
2018-01-12T17:03:56.885Z,34.27
2018-01-12T17:06:25.130Z,35.97
2018-01-12T17:08:53.410Z,33.63
2018-01-12T17:11:21.669Z,39.60
2018-01-12T17:13:50.037Z,44.97
2018-01-12T17:16:18.310Z,32.07
2018-01-12T17:18:46.614Z,34.50
2018-01-12T17:21:14.883Z,36.53
2018-01-12T17:23:43.334Z,36.40
2018-01-12T17:26:11.629Z,36.03
2018-01-12T17:28:40.162Z,32.97
2018-01-12T17:31:08.441Z,37.10
2018-01-12T17:33:36.775Z,33.80
2018-01-12T17:36:09.469Z,37.50
2018-01-12T17:38:38.637Z,46.73
2018-01-12T17:41:07.021Z,37.93
2018-01-12T17:43:37.453Z,35.13
2018-01-12T17:46:07.881Z,32.43
2018-01-12T17:48:36.182Z,46.60
2018-01-12T17:51:04.670Z,37.30
2018-01-12T17:53:34.873Z,37.27
2018-01-12T17:56:03.254Z,37.67
2018-01-12T17:58:31.674Z,36.17
2018-01-12T18:01:00.022Z,33.57
2018-01-12T18:03:29.314Z,37.03
2018-01-12T18:06:02.791Z,34.83
2018-01-12T18:08:31.298Z,34.93
2018-01-12T18:11:01.881Z,36.93
2018-01-12T18:13:34.171Z,39.30
2018-01-12T18:16:08.710Z,38.33
2018-01-12T18:18:37.155Z,37.30
2018-01-12T18:21:06.578Z,32.67
2018-01-12T18:23:36.786Z,39.90
2018-01-12T18:26:06.302Z,37.00
2018-01-12T18:28:35.460Z,35.50
2018-01-12T18:31:04.817Z,35.87
2018-01-12T18:33:33.221Z,37.60
2018-01-12T18:36:02.233Z,34.00
2018-01-12T18:38:30.573Z,41.07
2018-01-12T18:40:58.862Z,39.97
2018-01-12T18:43:27.361Z,38.20
2018-01-12T18:45:56.374Z,42.20
2018-01-12T18:48:25.234Z,36.27
2018-01-12T18:50:53.689Z,39.73
2018-01-12T18:53:22.051Z,42.17
2018-01-12T18:55:51.423Z,37.27
2018-01-12T18:58:20.642Z,37.17
2018-01-12T19:00:49.040Z,45.10
2018-01-12T19:03:18.372Z,38.40
2018-01-12T19:05:49.515Z,38.40
2018-01-12T19:08:18.019Z,35.10
2018-01-12T19:10:48.205Z,34.03
2018-01-12T19:13:16.473Z,42.20
2018-01-12T19:15:45.493Z,43.53
2018-01-12T19:18:15.103Z,42.20
2018-01-12T19:20:45.316Z,36.43
2018-01-12T19:23:14.621Z,36.27
2018-01-12T19:25:43.005Z,33.73
2018-01-12T19:28:13.213Z,33.40
2018-01-12T19:30:42.510Z,38.00
2018-01-12T19:33:10.967Z,34.63
2018-01-12T19:35:40.185Z,35.63
2018-01-12T19:38:09.485Z,38.30
2018-01-12T19:40:38.817Z,41.87
2018-01-12T19:43:07.838Z,35.27
2018-01-12T19:45:37.486Z,32.90
2018-01-12T19:48:06.177Z,45.43
2018-01-12T19:50:34.650Z,37.30
2018-01-12T19:53:02.894Z,34.30
2018-01-12T19:55:34.167Z,34.60
2018-01-12T19:58:02.393Z,33.70
2018-01-12T20:00:31.405Z,32.07
2018-01-12T20:02:59.682Z,33.20
2018-01-12T20:05:28.106Z,26.80
2018-01-12T20:07:56.486Z,32.10
2018-01-12T20:10:24.918Z,28.57
2018-01-12T20:12:53.281Z,31.43
2018-01-12T20:15:22.430Z,31.07
2018-01-12T20:17:51.001Z,29.87
2018-01-12T20:20:20.529Z,30.17
2018-01-12T20:22:49.000Z,28.30
2018-01-12T20:25:17.329Z,30.90
2018-01-12T20:27:45.805Z,32.43
2018-01-12T20:30:14.086Z,30.80
2018-01-12T20:32:43.385Z,32.13
2018-01-12T20:35:12.412Z,25.73
2018-01-12T20:37:40.886Z,26.27
2018-01-12T20:40:09.206Z,30.70
2018-01-12T20:42:37.488Z,29.40
2018-01-12T20:45:06.053Z,28.23
2018-01-12T20:47:36.473Z,31.03
2018-01-12T20:50:04.737Z,23.27
2018-01-12T20:52:33.821Z,29.80
2018-01-12T20:55:02.169Z,28.10
2018-01-12T20:57:31.189Z,26.03
2018-01-12T20:59:59.522Z,24.63
2018-01-12T21:02:27.969Z,28.47
2018-01-12T21:04:57.189Z,31.80
2018-01-12T21:07:25.767Z,28.30
2018-01-12T21:09:55.210Z,26.30
2018-01-12T21:12:24.221Z,33.17
2018-01-12T21:14:52.758Z,29.37
2018-01-12T21:17:21.073Z,28.53
2018-01-12T21:19:49.485Z,29.20
2018-01-12T21:22:17.738Z,27.80
2018-01-12T21:24:47.245Z,30.83
2018-01-12T21:27:15.501Z,28.50
2018-01-12T21:29:44.674Z,31.57
2018-01-12T21:32:12.981Z,32.07
2018-01-12T21:34:41.446Z,31.53
2018-01-12T21:37:09.677Z,27.87
2018-01-12T21:39:37.954Z,31.20
2018-01-12T21:42:06.196Z,30.17
2018-01-12T21:44:34.463Z,30.07
2018-01-12T21:47:03.642Z,34.40
2018-01-12T21:49:31.957Z,28.63
2018-01-12T21:52:00.197Z,29.87
2018-01-12T21:54:28.469Z,28.23
2018-01-12T21:56:56.846Z,26.20
2018-01-12T21:59:25.093Z,29.70
2018-01-12T22:01:53.357Z,27.33
2018-01-12T22:04:21.610Z,28.30
2018-01-12T22:06:50.049Z,26.13
2018-01-12T22:09:18.510Z,31.33
2018-01-12T22:11:46.770Z,28.73
2018-01-12T22:14:15.801Z,30.50
2018-01-12T22:16:44.078Z,30.90
2018-01-12T22:19:12.343Z,29.50
2018-01-12T22:21:40.589Z,36.73
2018-01-12T22:24:08.885Z,39.53
2018-01-12T22:26:37.142Z,30.00
2018-01-12T22:29:05.394Z,30.33
2018-01-12T22:31:33.934Z,30.53
2018-01-12T22:34:02.178Z,32.17
2018-01-12T22:36:30.422Z,30.13
2018-01-12T22:38:59.461Z,29.40
2018-01-12T22:41:27.701Z,28.37
2018-01-12T22:43:56.721Z,35.50
2018-01-12T22:46:25.081Z,28.47
2018-01-12T22:48:54.069Z,35.60
2018-01-12T22:51:23.101Z,36.23
2018-01-12T22:53:51.529Z,31.60
2018-01-12T22:56:19.777Z,28.97
2018-01-12T22:58:48.030Z,29.47
2018-01-12T23:01:16.309Z,34.57
2018-01-12T23:03:44.811Z,29.13
2018-01-12T23:06:13.038Z,36.00
2018-01-12T23:08:41.309Z,34.23
2018-01-12T23:11:09.562Z,36.63
2018-01-12T23:13:37.813Z,33.30
2018-01-12T23:16:06.276Z,34.27
2018-01-12T23:18:34.521Z,33.80
2018-01-12T23:21:02.775Z,32.53
2018-01-12T23:23:31.236Z,32.03
2018-01-12T23:26:00.033Z,37.67
2018-01-12T23:28:28.281Z,35.03
2018-01-12T23:30:56.603Z,29.67
2018-01-12T23:33:24.833Z,31.07
2018-01-12T23:35:53.082Z,32.87
2018-01-12T23:38:21.698Z,32.10
2018-01-12T23:40:49.950Z,29.77
2018-01-12T23:43:18.205Z,29.87
2018-01-12T23:45:47.417Z,31.47
2018-01-12T23:48:15.668Z,32.30
2018-01-12T23:50:43.921Z,31.37
2018-01-12T23:53:12.201Z,33.03
2018-01-12T23:55:40.450Z,29.40
2018-01-12T23:58:08.702Z,30.77
